Time;durP1;ratioP1;P1;durP2;ratioP2;P2;SDS_P1;SDS_P2;PMS_P1;PMS_P2;Temp;Humidity;BMP_temperature;BMP_pressure;BME280_temperature;BME280_humidity;BME280_pressure;Samples;Min_cycle;Max_cycle;Signal;HPM_P1;HPM_P2
2021/01/28 00:00:16;;;;;;;18.80;11.60;;;9.90;70.90;;;;;;2116503;27;20454;-59
2021/01/28 00:01:37;;;;;;;20.02;11.75;;;9.90;71.00;;;;;;2122385;27;20015;-60
2021/01/28 00:02:59;;;;;;;19.70;11.13;;;9.90;71.00;;;;;;2122638;27;20046;-59
2021/01/28 00:04:20;;;;;;;19.80;12.07;;;9.90;71.00;;;;;;2121784;27;20114;-60
2021/01/28 00:05:42;;;;;;;19.08;11.73;;;9.80;71.00;;;;;;2130241;27;20057;-59
2021/01/28 00:07:03;;;;;;;18.13;12.30;;;9.80;71.00;;;;;;2106176;28;20490;-60
2021/01/28 00:08:24;;;;;;;17.63;11.95;;;9.80;71.00;;;;;;2110759;28;20028;-60
2021/01/28 00:09:44;;;;;;;17.67;11.90;;;9.90;71.10;;;;;;2117469;27;20042;-57
2021/01/28 00:11:05;;;;;;;18.02;11.77;;;9.80;71.00;;;;;;2127766;27;20037;-59
2021/01/28 00:12:26;;;;;;;17.80;11.20;;;9.90;71.20;;;;;;2122586;27;20643;-60
2021/01/28 00:13:47;;;;;;;18.38;11.95;;;9.80;71.20;;;;;;2121948;28;20102;-59
2021/01/28 00:15:09;;;;;;;22.13;12.23;;;9.80;71.30;;;;;;2114726;28;20042;-60
2021/01/28 00:16:30;;;;;;;20.80;12.00;;;9.80;71.20;;;;;;2120728;27;20114;-60
2021/01/28 00:17:51;;;;;;;23.20;13.02;;;9.80;71.30;;;;;;2119848;27;20011;-59
2021/01/28 00:19:12;;;;;;;19.77;11.50;;;9.80;71.20;;;;;;2114172;27;20020;-60
2021/01/28 00:20:42;;;;;;;19.73;12.15;;;9.80;71.30;;;;;;2127947;27;20242;-60
2021/01/28 00:22:04;;;;;;;17.77;11.23;;;9.80;71.30;;;;;;2113840;28;20031;-60
2021/01/28 00:23:25;;;;;;;22.15;12.95;;;9.80;71.20;;;;;;2113047;28;20028;-59
2021/01/28 00:24:45;;;;;;;19.98;11.82;;;9.80;71.20;;;;;;2120259;27;20042;-59
2021/01/28 00:26:06;;;;;;;21.05;12.27;;;9.80;71.30;;;;;;2122222;27;20557;-59
2021/01/28 00:27:27;;;;;;;20.60;12.23;;;9.80;71.30;;;;;;2121580;27;20034;-60
2021/01/28 00:28:48;;;;;;;17.70;11.25;;;9.80;71.30;;;;;;2128549;27;20763;-60
2021/01/28 00:30:15;;;;;;;17.58;11.50;;;9.80;71.30;;;;;;2124067;27;20023;-61
2021/01/28 00:31:35;;;;;;;15.88;11.48;;;9.80;71.40;;;;;;2130011;27;20117;-59
2021/01/28 00:32:57;;;;;;;19.40;12.13;;;9.80;71.40;;;;;;2131345;27;20084;-59
2021/01/28 00:34:17;;;;;;;15.90;10.85;;;9.80;71.40;;;;;;2127303;27;20076;-59
2021/01/28 00:35:44;;;;;;;18.90;11.82;;;9.80;71.40;;;;;;2122736;28;20019;-58
2021/01/28 00:37:05;;;;;;;17.10;11.23;;;9.80;71.50;;;;;;2114186;28;20035;-60
2021/01/28 00:38:29;;;;;;;19.38;11.43;;;9.80;71.40;;;;;;2122200;28;20019;-59
2021/01/28 00:39:50;;;;;;;17.75;11.52;;;9.80;71.50;;;;;;2120520;27;20031;-59
2021/01/28 00:41:12;;;;;;;17.48;10.85;;;9.80;71.50;;;;;;2123168;27;20023;-58
2021/01/28 00:42:33;;;;;;;16.98;10.77;;;9.80;71.50;;;;;;2123620;27;20019;-59
2021/01/28 00:43:54;;;;;;;17.38;10.48;;;9.80;71.50;;;;;;2124349;27;20067;-58
2021/01/28 00:45:18;;;;;;;16.90;10.80;;;9.90;71.50;;;;;;2117210;27;20032;-59
2021/01/28 00:46:40;;;;;;;14.52;9.95;;;9.90;71.50;;;;;;2122661;27;20522;-58
2021/01/28 00:48:02;;;;;;;15.15;10.63;;;9.80;71.40;;;;;;2123402;27;20043;-58
2021/01/28 00:49:23;;;;;;;16.98;10.95;;;9.90;71.40;;;;;;2126629;27;20039;-59
2021/01/28 00:50:45;;;;;;;16.45;10.75;;;9.90;71.40;;;;;;2121651;27;20039;-60
2021/01/28 00:52:06;;;;;;;15.93;10.48;;;9.90;71.30;;;;;;2123960;27;20092;-61
2021/01/28 00:53:27;;;;;;;15.48;10.52;;;9.90;71.30;;;;;;2131440;27;20031;-59
2021/01/28 00:54:48;;;;;;;16.42;10.45;;;9.90;71.30;;;;;;2123413;27;20023;-60
2021/01/28 00:56:09;;;;;;;15.32;10.05;;;9.90;71.30;;;;;;2117141;27;20063;-59
2021/01/28 00:57:30;;;;;;;16.48;11.10;;;9.90;71.30;;;;;;2124325;27;20450;-59
2021/01/28 00:58:51;;;;;;;15.50;10.23;;;9.90;71.30;;;;;;2123706;27;20053;-59
2021/01/28 01:00:39;;;;;;;15.52;10.88;;;9.90;71.30;;;;;;2116520;27;20024;-59
2021/01/28 01:02:00;;;;;;;13.73;10.00;;;9.90;71.40;;;;;;2123335;27;20142;-58
2021/01/28 01:03:22;;;;;;;13.50;10.10;;;9.90;71.30;;;;;;2122922;27;20095;-58
2021/01/28 01:04:43;;;;;;;14.95;10.43;;;9.90;71.30;;;;;;2128885;27;20098;-58
2021/01/28 01:06:04;;;;;;;16.08;10.18;;;9.90;71.30;;;;;;2133173;27;20084;-59
2021/01/28 01:07:25;;;;;;;14.60;10.20;;;9.90;71.30;;;;;;2132969;27;20109;-59
2021/01/28 01:08:46;;;;;;;18.17;10.38;;;9.90;71.30;;;;;;2126387;27;20027;-60
2021/01/28 01:10:10;;;;;;;14.00;10.23;;;9.90;71.30;;;;;;2115142;27;20032;-59
2021/01/28 01:11:31;;;;;;;13.27;9.82;;;9.90;71.30;;;;;;2122698;27;20050;-59
2021/01/28 01:12:53;;;;;;;14.68;9.95;;;9.90;71.30;;;;;;2123640;27;20057;-59
2021/01/28 01:14:14;;;;;;;13.43;10.18;;;9.90;71.30;;;;;;2118365;27;20492;-60
2021/01/28 01:15:36;;;;;;;14.23;9.98;;;9.90;71.30;;;;;;2124158;27;20027;-60
2021/01/28 01:16:56;;;;;;;13.52;9.55;;;9.90;71.30;;;;;;2131015;27;20019;-59
2021/01/28 01:18:20;;;;;;;13.73;10.35;;;9.90;71.40;;;;;;2131950;27;20103;-59
2021/01/28 01:19:41;;;;;;;16.13;10.45;;;9.90;71.40;;;;;;2131596;27;20104;-59
2021/01/28 01:21:05;;;;;;;16.77;10.50;;;9.90;71.40;;;;;;2126914;27;20031;-59
2021/01/28 01:22:26;;;;;;;13.98;9.57;;;9.90;71.40;;;;;;2118508;27;20027;-60
2021/01/28 01:23:47;;;;;;;14.38;10.02;;;9.90;71.40;;;;;;2123369;27;20024;-59
2021/01/28 01:25:08;;;;;;;13.00;9.73;;;9.90;71.50;;;;;;2115802;27;20177;-60
2021/01/28 01:26:29;;;;;;;16.45;10.18;;;9.90;71.50;;;;;;2122787;27;20462;-59
2021/01/28 01:27:50;;;;;;;13.77;9.27;;;9.90;71.50;;;;;;2123712;27;20015;-59
2021/01/28 01:29:11;;;;;;;16.88;10.75;;;9.90;71.40;;;;;;2123990;27;20027;-59
2021/01/28 01:30:33;;;;;;;13.93;9.65;;;9.90;71.40;;;;;;2119117;27;20019;-59
2021/01/28 01:31:54;;;;;;;14.20;9.20;;;9.90;71.40;;;;;;2122847;27;20027;-59
2021/01/28 01:33:15;;;;;;;16.13;10.20;;;9.90;71.40;;;;;;2122937;27;20028;-59
2021/01/28 01:34:35;;;;;;;14.68;9.75;;;9.90;71.40;;;;;;2122909;27;20058;-59
2021/01/28 01:35:56;;;;;;;13.68;9.68;;;10.00;71.40;;;;;;2122268;27;20038;-58
2021/01/28 01:37:17;;;;;;;13.45;9.77;;;9.90;71.30;;;;;;2124176;27;20050;-59
2021/01/28 01:38:38;;;;;;;13.15;9.25;;;9.90;71.30;;;;;;2123265;27;20098;-59
2021/01/28 01:39:59;;;;;;;13.38;9.38;;;9.90;71.40;;;;;;2123925;27;20601;-58
2021/01/28 01:41:20;;;;;;;14.50;9.90;;;9.90;71.40;;;;;;2123551;27;20429;-59
2021/01/28 01:42:43;;;;;;;15.32;9.73;;;9.90;71.40;;;;;;2130071;27;20087;-59
2021/01/28 01:44:05;;;;;;;15.85;10.02;;;9.90;71.40;;;;;;2129580;27;20034;-58
2021/01/28 01:45:39;;;;;;;14.55;9.57;;;9.90;71.30;;;;;;2114709;28;20410;-58
2021/01/28 01:47:17;;;;;;;17.15;10.18;;;10.00;71.60;;;;;;2121139;27;20031;-59
2021/01/28 01:48:50;;;;;;;15.73;10.43;;;9.90;71.50;;;;;;2119294;27;20023;-58
2021/01/28 01:50:36;;;;;;;15.65;10.60;;;10.00;71.60;;;;;;2124950;27;20027;-59
2021/01/28 01:51:56;;;;;;;16.90;9.82;;;10.00;71.60;;;;;;2122290;27;20639;-60
2021/01/28 01:53:24;;;;;;;14.75;9.93;;;10.00;71.40;;;;;;2117730;27;20038;-58
2021/01/28 01:54:47;;;;;;;17.23;10.20;;;10.00;71.40;;;;;;2122504;27;20027;-58
2021/01/28 01:56:13;;;;;;;13.98;9.70;;;10.00;71.40;;;;;;2123210;27;20023;-59
2021/01/28 01:57:36;;;;;;;15.55;10.20;;;10.00;71.40;;;;;;2122506;27;20026;-60
2021/01/28 01:59:07;;;;;;;13.90;10.23;;;10.00;71.40;;;;;;2122642;27;20023;-59
2021/01/28 02:00:29;;;;;;;17.55;10.57;;;10.00;71.40;;;;;;2117969;27;20027;-59
2021/01/28 02:02:02;;;;;;;15.27;10.00;;;10.00;71.30;;;;;;2123370;27;20007;-59
2021/01/28 02:03:25;;;;;;;16.40;10.85;;;10.00;71.40;;;;;;2123317;27;20136;-59
2021/01/28 02:04:50;;;;;;;17.02;10.05;;;10.00;71.40;;;;;;2123413;27;20035;-60
2021/01/28 02:06:20;;;;;;;15.02;9.80;;;10.00;71.40;;;;;;2115356;27;20027;-59
2021/01/28 02:07:41;;;;;;;15.13;10.25;;;10.00;71.60;;;;;;2124569;27;20050;-59
2021/01/28 02:09:05;;;;;;;18.38;10.52;;;10.00;71.50;;;;;;2114652;27;20027;-60
2021/01/28 02:10:26;;;;;;;13.20;9.02;;;10.00;71.60;;;;;;2126479;27;20027;-59
2021/01/28 02:11:47;;;;;;;15.68;10.10;;;10.00;71.60;;;;;;2124127;27;20027;-59
2021/01/28 02:13:08;;;;;;;16.95;10.27;;;10.00;71.60;;;;;;2115129;27;20034;-59
2021/01/28 02:14:30;;;;;;;18.35;11.38;;;10.00;71.60;;;;;;2123022;27;20683;-59
2021/01/28 02:15:51;;;;;;;16.55;10.50;;;10.00;71.60;;;;;;2121916;27;20028;-59
2021/01/28 02:17:20;;;;;;;14.82;9.48;;;10.00;71.60;;;;;;2122942;27;20114;-59
2021/01/28 02:18:43;;;;;;;17.33;10.65;;;10.00;71.60;;;;;;2120390;27;20118;-59
2021/01/28 02:20:10;;;;;;;17.08;10.10;;;10.00;71.60;;;;;;2123813;27;20024;-59
2021/01/28 02:21:35;;;;;;;18.75;10.50;;;10.00;71.60;;;;;;2122364;27;20112;-60
2021/01/28 02:22:58;;;;;;;17.20;9.90;;;10.00;71.60;;;;;;2129976;27;20084;-59
2021/01/28 02:24:38;;;;;;;16.48;9.85;;;10.10;71.60;;;;;;2116289;27;20023;-59
2021/01/28 02:25:59;;;;;;;16.52;10.23;;;10.00;71.60;;;;;;2120985;27;20024;-60
2021/01/28 02:27:21;;;;;;;17.27;9.63;;;10.00;71.60;;;;;;2130190;27;20114;-59
2021/01/28 02:28:42;;;;;;;15.77;9.40;;;10.00;71.60;;;;;;2130686;27;20031;-59
2021/01/28 02:30:06;;;;;;;15.88;9.48;;;10.10;71.60;;;;;;2122341;27;20505;-59
2021/01/28 02:31:28;;;;;;;20.25;9.45;;;10.10;71.70;;;;;;2126612;27;20546;-59
2021/01/28 02:32:50;;;;;;;16.75;10.07;;;10.10;71.70;;;;;;2132181;27;20095;-59
2021/01/28 02:34:11;;;;;;;16.88;9.90;;;10.10;71.70;;;;;;2128115;27;20030;-60
2021/01/28 02:35:34;;;;;;;15.57;9.27;;;10.10;71.70;;;;;;2122286;27;20011;-60
2021/01/28 02:36:55;;;;;;;14.90;8.85;;;10.10;71.70;;;;;;2122763;27;20621;-60
2021/01/28 02:38:16;;;;;;;16.20;9.40;;;10.10;71.70;;;;;;2123798;27;20027;-59
2021/01/28 02:39:37;;;;;;;15.88;8.95;;;10.10;71.80;;;;;;2128212;27;20465;-59
2021/01/28 02:40:58;;;;;;;14.43;8.82;;;10.10;71.70;;;;;;2132271;27;20037;-59
2021/01/28 02:42:26;;;;;;;14.13;8.65;;;10.10;71.70;;;;;;2132193;27;20027;-59
2021/01/28 02:43:47;;;;;;;15.32;8.85;;;10.10;71.70;;;;;;2129433;27;20027;-59
2021/01/28 02:45:09;;;;;;;15.15;8.90;;;10.10;71.60;;;;;;2115322;27;20366;-59
2021/01/28 02:46:30;;;;;;;13.50;9.02;;;10.10;71.60;;;;;;2126017;27;20018;-59
2021/01/28 02:47:56;;;;;;;14.07;8.90;;;10.10;71.60;;;;;;2123618;27;20095;-59
2021/01/28 02:49:18;;;;;;;14.00;8.57;;;10.10;71.60;;;;;;2121430;27;20683;-59
2021/01/28 02:50:39;;;;;;;16.35;8.93;;;10.10;71.60;;;;;;2129569;27;20445;-58
2021/01/28 02:52:00;;;;;;;14.70;9.15;;;10.10;71.60;;;;;;2123322;27;20023;-59
2021/01/28 02:53:21;;;;;;;13.63;9.02;;;10.20;71.60;;;;;;2124223;27;20496;-59
2021/01/28 02:54:44;;;;;;;13.02;8.50;;;10.10;71.50;;;;;;2123886;27;20023;-60
2021/01/28 02:56:05;;;;;;;11.55;7.55;;;10.10;71.50;;;;;;2122259;27;20052;-59
2021/01/28 02:57:26;;;;;;;14.20;7.90;;;10.20;71.50;;;;;;2122047;27;20047;-60
2021/01/28 02:58:49;;;;;;;14.82;7.78;;;10.20;71.50;;;;;;2122316;27;20019;-59
2021/01/28 03:00:13;;;;;;;12.65;8.35;;;10.10;71.50;;;;;;2122353;27;20428;-59
2021/01/28 03:01:38;;;;;;;14.23;7.60;;;10.10;71.60;;;;;;2122267;27;20027;-59
2021/01/28 03:03:01;;;;;;;10.52;6.95;;;10.10;71.60;;;;;;2130559;27;20088;-59
2021/01/28 03:04:22;;;;;;;11.65;7.57;;;10.10;71.60;;;;;;2126553;27;20023;-59
2021/01/28 03:05:43;;;;;;;9.88;7.05;;;10.20;71.70;;;;;;2123547;27;20370;-60
2021/01/28 03:07:05;;;;;;;11.77;7.30;;;10.10;71.60;;;;;;2114639;27;20067;-60
2021/01/28 03:08:26;;;;;;;11.70;7.47;;;10.10;71.60;;;;;;2123027;27;20054;-59
2021/01/28 03:09:47;;;;;;;11.05;7.35;;;10.20;71.70;;;;;;2124568;27;20027;-60
2021/01/28 03:11:08;;;;;;;10.30;6.95;;;10.20;71.70;;;;;;2120792;27;20061;-60
2021/01/28 03:12:29;;;;;;;12.18;7.72;;;10.20;71.70;;;;;;2122281;27;20083;-59
2021/01/28 03:13:50;;;;;;;12.57;6.85;;;10.20;71.70;;;;;;2122431;27;20056;-60
2021/01/28 03:15:13;;;;;;;10.68;7.28;;;10.20;71.70;;;;;;2115458;27;20058;-59
2021/01/28 03:16:34;;;;;;;11.15;7.93;;;10.20;71.70;;;;;;2122697;27;20118;-59
2021/01/28 03:17:56;;;;;;;11.07;7.70;;;10.20;71.70;;;;;;2122492;27;20043;-59
2021/01/28 03:19:21;;;;;;;10.93;7.35;;;10.20;71.70;;;;;;2122422;27;20826;-59
2021/01/28 03:20:42;;;;;;;11.13;7.22;;;10.20;71.70;;;;;;2121407;27;20028;-59
2021/01/28 03:22:03;;;;;;;11.98;8.40;;;10.20;71.70;;;;;;2122393;27;20031;-60
2021/01/28 03:23:24;;;;;;;13.02;8.70;;;10.20;71.60;;;;;;2116776;27;20034;-60
2021/01/28 03:24:45;;;;;;;9.70;7.63;;;10.20;71.50;;;;;;2120128;27;20115;-59
2021/01/28 03:26:07;;;;;;;11.27;7.68;;;10.20;71.50;;;;;;2123365;27;20066;-59
2021/01/28 03:27:28;;;;;;;11.48;7.22;;;10.20;71.70;;;;;;2118207;27;20525;-60
2021/01/28 03:28:49;;;;;;;13.73;8.60;;;10.20;71.70;;;;;;2123658;27;20015;-59
2021/01/28 03:30:13;;;;;;;10.63;8.07;;;10.20;71.70;;;;;;2123457;27;20384;-59
2021/01/28 03:31:34;;;;;;;12.95;8.32;;;10.20;71.70;;;;;;2121770;27;20442;-59
2021/01/28 03:32:56;;;;;;;12.77;8.00;;;10.20;71.70;;;;;;2122541;27;20357;-60
2021/01/28 03:34:17;;;;;;;15.20;7.82;;;10.20;71.70;;;;;;2117411;27;20027;-60
2021/01/28 03:35:39;;;;;;;12.63;7.82;;;10.20;71.70;;;;;;2121526;27;20020;-59
2021/01/28 03:36:59;;;;;;;13.40;8.48;;;10.20;71.70;;;;;;2116583;27;20111;-59
2021/01/28 03:38:21;;;;;;;11.07;8.00;;;10.20;71.70;;;;;;2121076;27;20525;-59
2021/01/28 03:39:42;;;;;;;11.25;8.02;;;10.20;71.70;;;;;;2128953;27;20026;-59
2021/01/28 03:41:03;;;;;;;14.77;8.57;;;10.20;71.80;;;;;;2131240;27;20064;-59
2021/01/28 03:42:24;;;;;;;9.85;8.15;;;10.20;71.70;;;;;;2131198;27;20097;-60
2021/01/28 03:43:45;;;;;;;12.90;7.93;;;10.20;71.70;;;;;;2131029;27;20067;-59
2021/01/28 03:45:07;;;;;;;9.85;7.72;;;10.20;71.70;;;;;;2114363;28;20031;-59
2021/01/28 03:46:28;;;;;;;12.23;8.45;;;10.20;71.70;;;;;;2122711;27;20077;-59
2021/01/28 03:47:50;;;;;;;10.13;7.88;;;10.20;71.70;;;;;;2119958;27;20023;-59
2021/01/28 03:49:11;;;;;;;9.93;7.80;;;10.20;71.70;;;;;;2122355;27;20055;-60
2021/01/28 03:50:34;;;;;;;11.40;7.22;;;10.20;71.70;;;;;;2113591;28;20031;-59
2021/01/28 03:51:55;;;;;;;11.10;7.22;;;10.20;71.70;;;;;;2118920;27;20015;-59
2021/01/28 03:53:16;;;;;;;10.20;7.55;;;10.20;71.70;;;;;;2122229;27;20035;-59
2021/01/28 03:54:37;;;;;;;8.75;6.80;;;10.20;71.70;;;;;;2123020;27;20430;-59
2021/01/28 03:55:58;;;;;;;10.77;7.78;;;10.20;71.70;;;;;;2122546;27;20042;-59
2021/01/28 03:57:19;;;;;;;9.35;7.38;;;10.20;71.70;;;;;;2122582;27;20023;-59
2021/01/28 03:58:41;;;;;;;9.23;7.28;;;10.20;71.70;;;;;;2122694;27;20023;-59
2021/01/28 04:00:12;;;;;;;9.88;7.50;;;10.20;71.80;;;;;;2121890;27;20023;-60
2021/01/28 04:01:34;;;;;;;11.05;7.03;;;10.20;71.90;;;;;;2118145;27;20051;-59
2021/01/28 04:02:55;;;;;;;7.88;6.43;;;10.20;71.80;;;;;;2126599;27;20033;-59
2021/01/28 04:04:16;;;;;;;6.72;6.03;;;10.20;71.70;;;;;;2123032;27;20023;-60
2021/01/28 04:05:36;;;;;;;7.80;6.68;;;10.20;71.70;;;;;;2118870;27;20030;-59
2021/01/28 04:06:57;;;;;;;10.77;7.32;;;10.30;71.80;;;;;;2122223;27;20342;-59
2021/01/28 04:08:18;;;;;;;7.13;6.18;;;10.30;71.80;;;;;;2122770;27;20035;-59
2021/01/28 04:09:39;;;;;;;7.63;6.15;;;10.20;71.70;;;;;;2123177;27;20379;-59
2021/01/28 04:11:00;;;;;;;8.25;6.45;;;10.20;71.70;;;;;;2121417;27;20442;-60
2021/01/28 04:12:21;;;;;;;8.60;6.28;;;10.30;71.90;;;;;;2122065;27;20171;-59
2021/01/28 04:13:42;;;;;;;8.52;6.35;;;10.30;72.00;;;;;;2124695;27;20020;-59
2021/01/28 04:15:05;;;;;;;9.18;6.30;;;10.30;72.00;;;;;;2113489;28;20028;-59
2021/01/28 04:16:26;;;;;;;6.50;5.60;;;10.30;72.00;;;;;;2117159;27;20030;-59
2021/01/28 04:17:47;;;;;;;7.30;5.35;;;10.30;72.00;;;;;;2125925;27;20065;-59
2021/01/28 04:19:08;;;;;;;7.50;5.70;;;10.30;72.00;;;;;;2127484;27;20035;-59
2021/01/28 04:20:32;;;;;;;6.35;5.50;;;10.30;72.00;;;;;;2117683;27;20039;-59
2021/01/28 04:21:53;;;;;;;7.43;5.40;;;10.30;72.00;;;;;;2120837;27;20011;-59
2021/01/28 04:23:13;;;;;;;7.88;6.13;;;10.30;72.00;;;;;;2115422;28;20031;-59
2021/01/28 04:24:36;;;;;;;7.50;6.25;;;10.30;72.00;;;;;;2120530;27;20080;-59
2021/01/28 04:25:56;;;;;;;8.27;5.70;;;10.40;72.00;;;;;;2128303;27;20031;-59
2021/01/28 04:27:17;;;;;;;6.03;5.43;;;10.40;72.00;;;;;;2129851;27;20163;-59
2021/01/28 04:28:39;;;;;;;5.82;5.13;;;10.40;72.00;;;;;;2118268;28;20037;-59
2021/01/28 04:30:01;;;;;;;7.68;6.03;;;10.40;72.00;;;;;;2121454;27;20031;-59
2021/01/28 04:31:22;;;;;;;7.70;6.20;;;10.40;71.90;;;;;;2121952;27;20037;-59
2021/01/28 04:32:43;;;;;;;7.75;5.30;;;10.40;71.90;;;;;;2124793;27;20058;-59
2021/01/28 04:34:04;;;;;;;6.97;4.97;;;10.40;71.90;;;;;;2128822;27;20424;-59
2021/01/28 04:35:25;;;;;;;5.80;5.20;;;10.40;71.90;;;;;;2122489;28;20027;-60
2021/01/28 04:36:46;;;;;;;8.10;5.63;;;10.40;71.90;;;;;;2121558;28;20023;-59
2021/01/28 04:38:07;;;;;;;5.68;4.80;;;10.40;71.80;;;;;;2122961;27;20029;-59
2021/01/28 04:39:28;;;;;;;5.38;4.18;;;10.40;71.80;;;;;;2124956;27;20023;-59
2021/01/28 04:40:53;;;;;;;6.78;5.10;;;10.40;71.80;;;;;;2121995;28;20041;-59
2021/01/28 04:42:22;;;;;;;4.82;4.18;;;10.50;71.80;;;;;;2121794;28;20523;-59
2021/01/28 04:43:46;;;;;;;7.03;4.93;;;10.40;71.80;;;;;;2122381;28;20499;-60
2021/01/28 04:45:08;;;;;;;5.82;4.80;;;10.50;71.80;;;;;;2106381;28;20024;-60
2021/01/28 04:46:41;;;;;;;6.95;4.88;;;10.50;71.70;;;;;;2119873;27;20045;-60
2021/01/28 04:48:05;;;;;;;5.95;4.70;;;10.50;71.80;;;;;;2113061;28;20078;-59
2021/01/28 04:49:27;;;;;;;5.20;4.60;;;10.50;71.70;;;;;;2121564;28;20081;-59
2021/01/28 04:50:49;;;;;;;6.00;5.00;;;10.50;71.70;;;;;;2122529;28;20027;-59
2021/01/28 04:52:12;;;;;;;5.47;4.82;;;10.50;71.70;;;;;;2114181;28;20040;-59
2021/01/28 04:53:40;;;;;;;5.20;4.68;;;10.50;71.70;;;;;;2118960;28;20597;-59
2021/01/28 04:55:02;;;;;;;4.88;4.38;;;10.50;71.70;;;;;;2121761;28;20027;-59
2021/01/28 04:56:26;;;;;;;6.00;4.15;;;10.50;71.70;;;;;;2116795;28;20114;-59
2021/01/28 04:57:47;;;;;;;5.25;4.15;;;10.50;71.70;;;;;;2121924;28;20072;-59
2021/01/28 04:59:16;;;;;;;4.95;4.45;;;10.50;71.70;;;;;;2122086;28;20434;-59
2021/01/28 05:00:38;;;;;;;5.75;4.93;;;10.50;71.70;;;;;;2120650;27;20100;-59
2021/01/28 05:02:00;;;;;;;4.38;3.97;;;10.50;71.60;;;;;;2122769;28;20020;-59
2021/01/28 05:03:35;;;;;;;4.30;3.90;;;10.50;71.60;;;;;;2126430;27;20023;-59
2021/01/28 05:04:58;;;;;;;4.70;3.60;;;10.50;71.60;;;;;;2121535;28;20035;-59
2021/01/28 05:06:19;;;;;;;5.68;3.95;;;10.50;71.50;;;;;;2121436;28;20089;-59
2021/01/28 05:07:41;;;;;;;5.32;3.90;;;10.50;71.50;;;;;;2127622;27;20389;-59
2021/01/28 05:09:03;;;;;;;4.18;3.80;;;10.50;71.60;;;;;;2128868;27;20039;-59
2021/01/28 05:10:24;;;;;;;3.80;3.50;;;10.50;71.60;;;;;;2120688;28;20035;-60
2021/01/28 05:11:56;;;;;;;4.00;3.60;;;10.50;71.60;;;;;;2121763;28;20046;-59
2021/01/28 05:13:37;;;;;;;3.65;3.35;;;10.50;71.70;;;;;;2117776;27;20106;-59
2021/01/28 05:15:27;;;;;;;4.45;3.97;;;10.50;71.70;;;;;;2121944;28;20122;-59
2021/01/28 05:16:51;;;;;;;3.72;3.40;;;10.50;71.60;;;;;;2120700;27;20435;-60
2021/01/28 05:18:29;;;;;;;4.10;3.70;;;10.50;71.40;;;;;;2116276;28;20035;-59
2021/01/28 05:19:52;;;;;;;4.32;3.75;;;10.50;71.50;;;;;;2121894;28;20078;-59
2021/01/28 05:21:22;;;;;;;4.07;3.67;;;10.50;71.30;;;;;;2121070;28;20720;-59
2021/01/28 05:22:44;;;;;;;4.57;3.42;;;10.50;71.30;;;;;;2115968;28;20024;-59
2021/01/28 05:24:29;;;;;;;3.22;3.03;;;10.50;71.30;;;;;;2115938;27;20058;-59
2021/01/28 05:25:50;;;;;;;3.33;3.03;;;10.50;71.30;;;;;;2130638;27;20034;-59
2021/01/28 05:27:29;;;;;;;4.60;3.28;;;10.50;71.30;;;;;;2122127;27;20114;-59
2021/01/28 05:28:49;;;;;;;3.50;3.17;;;10.50;71.20;;;;;;2121191;27;20380;-59
2021/01/28 05:30:17;;;;;;;3.78;3.35;;;10.50;71.10;;;;;;2116263;27;20036;-59
2021/01/28 05:31:37;;;;;;;3.75;3.10;;;10.50;71.10;;;;;;2122219;27;20102;-59
2021/01/28 05:32:58;;;;;;;3.40;3.13;;;10.50;71.10;;;;;;2121269;27;20035;-59
2021/01/28 05:34:26;;;;;;;3.10;2.80;;;10.50;71.10;;;;;;2119733;27;20030;-59
2021/01/28 05:35:59;;;;;;;3.00;2.78;;;10.50;71.10;;;;;;2115546;27;20027;-59
2021/01/28 05:37:24;;;;;;;2.90;2.70;;;10.50;71.00;;;;;;2117386;27;20027;-59
2021/01/28 05:38:54;;;;;;;3.08;2.78;;;10.50;71.00;;;;;;2124251;27;20035;-59
2021/01/28 05:40:25;;;;;;;3.67;3.38;;;10.40;70.90;;;;;;2123474;27;20351;-60
2021/01/28 05:41:49;;;;;;;2.72;2.53;;;10.40;70.90;;;;;;2122525;27;20027;-59
2021/01/28 05:43:30;;;;;;;3.60;2.92;;;10.40;70.90;;;;;;2114945;27;20038;-59
2021/01/28 05:44:51;;;;;;;3.08;2.78;;;10.40;71.00;;;;;;2115931;27;20497;-59
2021/01/28 05:46:19;;;;;;;3.38;3.08;;;10.40;70.90;;;;;;2115863;27;20098;-59
2021/01/28 05:47:40;;;;;;;3.33;3.03;;;10.40;70.90;;;;;;2121996;27;20031;-59
2021/01/28 05:49:12;;;;;;;3.40;3.10;;;10.40;70.90;;;;;;2114598;28;20104;-59
2021/01/28 05:50:32;;;;;;;3.20;2.90;;;10.40;70.90;;;;;;2121481;27;20027;-59
2021/01/28 05:51:53;;;;;;;3.20;2.90;;;10.40;70.90;;;;;;2123014;27;20027;-60
2021/01/28 05:53:17;;;;;;;3.13;2.85;;;10.40;70.90;;;;;;2118889;27;20035;-59
2021/01/28 05:54:38;;;;;;;3.90;3.00;;;10.40;70.90;;;;;;2117545;27;20035;-59
2021/01/28 05:56:02;;;;;;;3.00;2.80;;;10.40;70.80;;;;;;2123395;27;20027;-59
2021/01/28 05:57:50;;;;;;;4.03;2.83;;;10.40;70.80;;;;;;2120081;27;20392;-60
2021/01/28 05:59:21;;;;;;;3.20;2.90;;;10.40;70.90;;;;;;2122667;27;20027;-59
2021/01/28 06:00:45;;;;;;;3.28;3.00;;;10.40;70.90;;;;;;2123418;27;20007;-59
2021/01/28 06:02:18;;;;;;;3.03;2.83;;;10.30;70.80;;;;;;2117332;27;20026;-59
2021/01/28 06:04:07;;;;;;;3.17;2.92;;;10.30;70.90;;;;;;2127738;27;20034;-59
2021/01/28 06:05:53;;;;;;;6.07;3.25;;;10.40;70.90;;;;;;2119272;27;20087;-59
2021/01/28 06:07:53;;;;;;;3.85;3.30;;;10.30;70.80;;;;;;2119389;27;20050;-59
2021/01/28 06:09:19;;;;;;;3.88;3.05;;;10.30;70.80;;;;;;2094448;27;20035;-59
2021/01/28 06:11:14;;;;;;;4.28;3.08;;;10.30;70.80;;;;;;2122725;27;20106;-59
2021/01/28 06:12:43;;;;;;;3.00;2.78;;;10.30;70.80;;;;;;2122031;27;20039;-59
2021/01/28 06:14:22;;;;;;;3.40;3.10;;;10.30;70.80;;;;;;2123068;27;20020;-59
2021/01/28 06:15:59;;;;;;;3.00;2.80;;;10.30;70.80;;;;;;2125862;27;20031;-59
2021/01/28 06:17:41;;;;;;;2.85;2.65;;;10.30;70.70;;;;;;2124621;27;20027;-60
2021/01/28 06:19:14;;;;;;;3.33;3.05;;;10.30;70.80;;;;;;2120503;27;20035;-59
2021/01/28 06:20:45;;;;;;;2.83;2.63;;;10.30;70.80;;;;;;2120533;27;20362;-59
2021/01/28 06:22:17;;;;;;;3.22;2.92;;;10.20;70.70;;;;;;2117338;27;20040;-59
2021/01/28 06:23:55;;;;;;;2.70;2.50;;;10.30;70.80;;;;;;2126230;27;20381;-59
2021/01/28 06:25:44;;;;;;;3.03;2.70;;;10.20;70.80;;;;;;2118441;27;20050;-59
2021/01/28 06:27:25;;;;;;;2.72;2.53;;;10.20;70.80;;;;;;2117486;27;20415;-59
2021/01/28 06:28:46;;;;;;;3.30;2.95;;;10.20;70.80;;;;;;2122049;27;20031;-60
2021/01/28 06:30:28;;;;;;;2.90;2.70;;;10.20;70.70;;;;;;2122939;27;20031;-59
2021/01/28 06:32:20;;;;;;;2.97;2.72;;;10.20;70.80;;;;;;2122106;27;20055;-60
2021/01/28 06:34:02;;;;;;;3.72;3.10;;;10.20;70.80;;;;;;2127558;27;20358;-59
2021/01/28 06:35:44;;;;;;;2.60;2.40;;;10.30;70.80;;;;;;2119805;27;20658;-60
2021/01/28 06:37:11;;;;;;;2.90;2.67;;;10.20;70.70;;;;;;2116639;27;20039;-59
2021/01/28 06:38:50;;;;;;;3.47;2.67;;;10.20;70.60;;;;;;2120181;27;20019;-59
2021/01/28 06:40:19;;;;;;;2.60;2.40;;;10.20;70.80;;;;;;2119031;27;20168;-59
2021/01/28 06:41:49;;;;;;;3.38;2.95;;;10.20;70.70;;;;;;2122772;27;20107;-60
2021/01/28 06:43:17;;;;;;;3.30;3.00;;;10.20;70.80;;;;;;2122613;27;20044;-60
2021/01/28 06:44:45;;;;;;;3.30;3.00;;;10.20;70.80;;;;;;2122041;27;20522;-60
2021/01/28 06:46:20;;;;;;;2.80;2.60;;;10.20;70.90;;;;;;2116962;27;20122;-60
2021/01/28 06:48:03;;;;;;;2.45;2.35;;;10.20;70.90;;;;;;2128223;27;20031;-60
2021/01/28 06:49:45;;;;;;;2.80;2.60;;;10.20;70.90;;;;;;2121648;27;20031;-60
2021/01/28 06:51:28;;;;;;;3.88;2.90;;;10.20;70.80;;;;;;2116704;27;20460;-59
2021/01/28 06:53:01;;;;;;;3.08;2.88;;;10.20;70.80;;;;;;2121302;27;20541;-60
2021/01/28 06:54:38;;;;;;;3.00;2.78;;;10.20;70.70;;;;;;2117167;27;20343;-60
2021/01/28 06:56:08;;;;;;;2.72;2.53;;;10.20;70.70;;;;;;2129443;27;20041;-59
2021/01/28 06:57:55;;;;;;;3.10;2.90;;;10.20;70.70;;;;;;2120066;27;20027;-60
2021/01/28 06:59:43;;;;;;;2.90;2.70;;;10.10;70.70;;;;;;2115229;27;20046;-60
2021/01/28 07:01:09;;;;;;;3.03;2.83;;;10.10;70.70;;;;;;2115234;27;20035;-60
2021/01/28 07:02:55;;;;;;;2.80;2.60;;;10.10;70.60;;;;;;2122067;27;20026;-60
2021/01/28 07:04:29;;;;;;;2.67;2.47;;;10.10;70.70;;;;;;2118385;27;20019;-60
2021/01/28 07:06:04;;;;;;;2.83;2.28;;;10.20;70.80;;;;;;2121215;27;20026;-60
2021/01/28 07:07:26;;;;;;;2.67;2.47;;;10.10;70.80;;;;;;2119121;27;20477;-60
2021/01/28 07:09:07;;;;;;;3.45;2.80;;;10.10;70.70;;;;;;2122413;27;20049;-60
2021/01/28 07:10:39;;;;;;;3.03;2.55;;;10.10;70.70;;;;;;2124888;27;20034;-61
2021/01/28 07:12:03;;;;;;;3.15;2.70;;;10.10;70.80;;;;;;2122143;27;20079;-59
2021/01/28 07:13:32;;;;;;;2.60;2.40;;;10.10;70.70;;;;;;2119818;27;20031;-60
2021/01/28 07:14:53;;;;;;;3.45;2.88;;;10.10;70.80;;;;;;2128239;27;20017;-59
2021/01/28 07:16:20;;;;;;;3.00;2.80;;;10.10;70.80;;;;;;2118662;27;20031;-60
2021/01/28 07:18:04;;;;;;;2.90;2.70;;;10.10;70.90;;;;;;2121927;27;20100;-59
2021/01/28 07:19:33;;;;;;;3.10;2.90;;;10.10;71.00;;;;;;2120824;27;20629;-60
2021/01/28 07:21:01;;;;;;;3.55;3.20;;;10.10;71.00;;;;;;2114800;27;20451;-60